sensor_id;sensor_type;location;lat;lon;timestamp;noise_LAeq;noise_LA_min;noise_LA_max;noise_LA01;noise_LA95
70245;Laerm;57637;49.272;8.590;2023-07-28T00:01:14;45.36;36.66;52.38;;
70245;Laerm;57637;49.272;8.590;2023-07-28T00:03:39;46.03;40.57;51.16;;
70245;Laerm;57637;49.272;8.590;2023-07-28T00:06:04;44.87;39.01;50.37;;
70245;Laerm;57637;49.272;8.590;2023-07-28T00:08:30;45.91;39.98;51.82;;
70245;Laerm;57637;49.272;8.590;2023-07-28T00:10:55;46.55;40.41;53.49;;
70245;Laerm;57637;49.272;8.590;2023-07-28T00:13:20;46.49;41.71;52.32;;
70245;Laerm;57637;49.272;8.590;2023-07-28T00:15:46;45.02;39.33;52.53;;
70245;Laerm;57637;49.272;8.590;2023-07-28T00:18:11;40.26;36.40;46.60;;
70245;Laerm;57637;49.272;8.590;2023-07-28T00:20:36;42.15;36.86;52.12;;
70245;Laerm;57637;49.272;8.590;2023-07-28T00:23:02;48.17;40.91;55.98;;
70245;Laerm;57637;49.272;8.590;2023-07-28T00:25:27;49.08;43.31;55.10;;
70245;Laerm;57637;49.272;8.590;2023-07-28T00:27:52;47.01;42.25;54.20;;
70245;Laerm;57637;49.272;8.590;2023-07-28T00:30:18;43.24;37.34;48.71;;
70245;Laerm;57637;49.272;8.590;2023-07-28T00:32:43;42.17;37.64;47.75;;
70245;Laerm;57637;49.272;8.590;2023-07-28T00:35:09;43.04;38.19;50.39;;
70245;Laerm;57637;49.272;8.590;2023-07-28T00:37:34;47.39;39.85;54.28;;
70245;Laerm;57637;49.272;8.590;2023-07-28T00:40:00;48.65;43.11;54.30;;
70245;Laerm;57637;49.272;8.590;2023-07-28T00:42:25;46.65;38.88;52.71;;
70245;Laerm;57637;49.272;8.590;2023-07-28T00:44:50;42.86;38.39;47.54;;
70245;Laerm;57637;49.272;8.590;2023-07-28T00:47:16;43.09;35.31;58.67;;
70245;Laerm;57637;49.272;8.590;2023-07-28T00:49:41;42.22;36.45;47.54;;
70245;Laerm;57637;49.272;8.590;2023-07-28T00:52:07;43.93;36.02;49.33;;
70245;Laerm;57637;49.272;8.590;2023-07-28T00:54:33;44.19;36.18;53.02;;
70245;Laerm;57637;49.272;8.590;2023-07-28T00:56:59;43.05;35.47;50.35;;
70245;Laerm;57637;49.272;8.590;2023-07-28T00:59:26;42.41;35.39;48.57;;
70245;Laerm;57637;49.272;8.590;2023-07-28T01:01:52;39.73;34.38;45.90;;
70245;Laerm;57637;49.272;8.590;2023-07-28T01:04:17;37.05;32.58;49.28;;
70245;Laerm;57637;49.272;8.590;2023-07-28T01:10:02;41.12;34.12;48.72;;
70245;Laerm;57637;49.272;8.590;2023-07-28T01:12:28;41.43;32.78;47.33;;
70245;Laerm;57637;49.272;8.590;2023-07-28T01:14:54;39.29;33.11;45.18;;
70245;Laerm;57637;49.272;8.590;2023-07-28T01:17:19;36.60;32.34;41.44;;
70245;Laerm;57637;49.272;8.590;2023-07-28T01:19:45;38.95;34.77;45.88;;
70245;Laerm;57637;49.272;8.590;2023-07-28T01:22:40;39.50;33.03;47.99;;
70245;Laerm;57637;49.272;8.590;2023-07-28T01:25:18;37.77;32.73;44.99;;
70245;Laerm;57637;49.272;8.590;2023-07-28T01:27:47;34.07;31.52;44.21;;
70245;Laerm;57637;49.272;8.590;2023-07-28T01:30:14;34.93;31.38;42.68;;
70245;Laerm;57637;49.272;8.590;2023-07-28T01:32:39;33.34;30.79;38.78;;
70245;Laerm;57637;49.272;8.590;2023-07-28T01:35:05;34.71;30.39;44.12;;
70245;Laerm;57637;49.272;8.590;2023-07-28T01:37:30;32.76;30.28;35.46;;
70245;Laerm;57637;49.272;8.590;2023-07-28T01:39:56;33.30;30.27;41.00;;
70245;Laerm;57637;49.272;8.590;2023-07-28T01:42:23;34.92;31.28;39.16;;
70245;Laerm;57637;49.272;8.590;2023-07-28T01:44:48;35.30;31.92;40.30;;
70245;Laerm;57637;49.272;8.590;2023-07-28T01:47:14;36.13;31.68;43.97;;
70245;Laerm;57637;49.272;8.590;2023-07-28T01:49:39;36.23;31.53;43.19;;
70245;Laerm;57637;49.272;8.590;2023-07-28T01:52:05;35.42;31.84;45.13;;
70245;Laerm;57637;49.272;8.590;2023-07-28T01:54:30;36.61;32.09;51.14;;
70245;Laerm;57637;49.272;8.590;2023-07-28T01:56:55;36.11;30.87;46.43;;
70245;Laerm;57637;49.272;8.590;2023-07-28T01:59:21;33.94;30.70;40.94;;
70245;Laerm;57637;49.272;8.590;2023-07-28T02:01:47;32.81;29.77;36.89;;
70245;Laerm;57637;49.272;8.590;2023-07-28T02:04:12;33.20;30.18;36.49;;
70245;Laerm;57637;49.272;8.590;2023-07-28T02:06:37;34.61;30.80;42.69;;
70245;Laerm;57637;49.272;8.590;2023-07-28T02:09:03;33.68;31.03;37.72;;
70245;Laerm;57637;49.272;8.590;2023-07-28T02:11:28;34.41;30.89;38.70;;
70245;Laerm;57637;49.272;8.590;2023-07-28T02:13:54;35.13;31.79;39.84;;
70245;Laerm;57637;49.272;8.590;2023-07-28T02:16:19;34.96;31.64;41.91;;
70245;Laerm;57637;49.272;8.590;2023-07-28T02:18:44;34.43;31.08;45.98;;
70245;Laerm;57637;49.272;8.590;2023-07-28T02:21:10;34.11;30.97;38.33;;
70245;Laerm;57637;49.272;8.590;2023-07-28T02:23:38;34.71;31.33;41.31;;
70245;Laerm;57637;49.272;8.590;2023-07-28T02:26:03;36.53;31.20;45.57;;
70245;Laerm;57637;49.272;8.590;2023-07-28T02:28:28;34.85;31.01;46.14;;
70245;Laerm;57637;49.272;8.590;2023-07-28T02:30:54;32.82;28.70;41.12;;
70245;Laerm;57637;49.272;8.590;2023-07-28T02:33:19;32.05;28.82;44.67;;
70245;Laerm;57637;49.272;8.590;2023-07-28T02:35:44;32.52;29.59;48.58;;
70245;Laerm;57637;49.272;8.590;2023-07-28T02:38:10;33.48;29.79;44.88;;
70245;Laerm;57637;49.272;8.590;2023-07-28T02:40:35;32.64;29.64;38.68;;
70245;Laerm;57637;49.272;8.590;2023-07-28T02:43:00;36.01;30.11;48.76;;
70245;Laerm;57637;49.272;8.590;2023-07-28T02:45:26;34.68;30.06;47.51;;
70245;Laerm;57637;49.272;8.590;2023-07-28T02:47:51;39.51;32.31;50.70;;
70245;Laerm;57637;49.272;8.590;2023-07-28T02:50:16;33.51;29.76;46.95;;
70245;Laerm;57637;49.272;8.590;2023-07-28T02:52:42;36.64;30.38;46.77;;
70245;Laerm;57637;49.272;8.590;2023-07-28T02:55:07;37.46;30.07;50.81;;
70245;Laerm;57637;49.272;8.590;2023-07-28T02:57:33;34.39;30.38;46.71;;
70245;Laerm;57637;49.272;8.590;2023-07-28T02:59:58;36.05;30.62;42.69;;
70245;Laerm;57637;49.272;8.590;2023-07-28T03:02:24;43.60;34.75;49.70;;
70245;Laerm;57637;49.272;8.590;2023-07-28T03:04:49;40.78;35.07;46.25;;
70245;Laerm;57637;49.272;8.590;2023-07-28T03:07:14;35.46;30.17;45.29;;
70245;Laerm;57637;49.272;8.590;2023-07-28T03:09:40;34.65;29.96;44.74;;
70245;Laerm;57637;49.272;8.590;2023-07-28T03:12:07;34.09;29.99;40.11;;
70245;Laerm;57637;49.272;8.590;2023-07-28T03:14:33;35.66;31.29;44.72;;
70245;Laerm;57637;49.272;8.590;2023-07-28T03:16:58;40.53;34.55;45.61;;
70245;Laerm;57637;49.272;8.590;2023-07-28T03:19:24;37.91;31.73;45.31;;
70245;Laerm;57637;49.272;8.590;2023-07-28T03:21:49;37.42;31.19;46.01;;
70245;Laerm;57637;49.272;8.590;2023-07-28T03:24:14;38.07;34.29;46.31;;
70245;Laerm;57637;49.272;8.590;2023-07-28T03:26:40;37.82;33.30;47.54;;
70245;Laerm;57637;49.272;8.590;2023-07-28T03:29:05;36.87;31.84;46.34;;
70245;Laerm;57637;49.272;8.590;2023-07-28T03:31:31;37.82;32.81;45.67;;
70245;Laerm;57637;49.272;8.590;2023-07-28T03:33:56;41.14;33.98;54.01;;
70245;Laerm;57637;49.272;8.590;2023-07-28T03:36:21;40.78;36.84;48.45;;
70245;Laerm;57637;49.272;8.590;2023-07-28T03:38:47;41.74;37.42;48.16;;
70245;Laerm;57637;49.272;8.590;2023-07-28T03:41:13;42.41;37.58;58.72;;
70245;Laerm;57637;49.272;8.590;2023-07-28T03:43:40;39.46;35.25;45.66;;
70245;Laerm;57637;49.272;8.590;2023-07-28T03:46:05;37.74;34.10;45.08;;
70245;Laerm;57637;49.272;8.590;2023-07-28T03:48:30;37.92;34.50;48.35;;
70245;Laerm;57637;49.272;8.590;2023-07-28T03:50:56;39.37;35.19;47.10;;
70245;Laerm;57637;49.272;8.590;2023-07-28T03:53:21;44.63;38.57;49.25;;
70245;Laerm;57637;49.272;8.590;2023-07-28T03:55:46;41.32;38.07;47.15;;
70245;Laerm;57637;49.272;8.590;2023-07-28T03:58:12;39.99;37.63;47.12;;
70245;Laerm;57637;49.272;8.590;2023-07-28T04:00:37;38.18;34.88;44.64;;
70245;Laerm;57637;49.272;8.590;2023-07-28T04:03:05;38.17;33.65;61.49;;
70245;Laerm;57637;49.272;8.590;2023-07-28T04:05:31;37.21;33.71;46.43;;
70245;Laerm;57637;49.272;8.590;2023-07-28T04:07:56;41.14;33.35;48.58;;
70245;Laerm;57637;49.272;8.590;2023-07-28T04:10:21;42.70;36.77;46.97;;
70245;Laerm;57637;49.272;8.590;2023-07-28T04:12:47;43.54;39.92;51.48;;
70245;Laerm;57637;49.272;8.590;2023-07-28T04:15:12;42.09;38.42;59.42;;
70245;Laerm;57637;49.272;8.590;2023-07-28T04:17:38;46.32;37.96;68.09;;
70245;Laerm;57637;49.272;8.590;2023-07-28T04:20:04;43.21;37.91;51.01;;
70245;Laerm;57637;49.272;8.590;2023-07-28T04:22:30;42.03;37.55;56.63;;
70245;Laerm;57637;49.272;8.590;2023-07-28T04:24:56;45.80;40.81;59.93;;
70245;Laerm;57637;49.272;8.590;2023-07-28T04:27:21;46.47;38.52;52.11;;
70245;Laerm;57637;49.272;8.590;2023-07-28T04:29:47;49.36;41.74;57.86;;
70245;Laerm;57637;49.272;8.590;2023-07-28T04:32:12;51.51;41.16;57.42;;
70245;Laerm;57637;49.272;8.590;2023-07-28T04:34:40;52.57;49.34;76.63;;
70245;Laerm;57637;49.272;8.590;2023-07-28T04:37:05;50.80;47.73;53.60;;
70245;Laerm;57637;49.272;8.590;2023-07-28T04:39:31;55.79;50.18;58.52;;
70245;Laerm;57637;49.272;8.590;2023-07-28T04:41:56;58.84;53.43;62.70;;
70245;Laerm;57637;49.272;8.590;2023-07-28T04:44:21;53.56;45.21;59.28;;
70245;Laerm;57637;49.272;8.590;2023-07-28T04:46:47;44.63;40.24;53.23;;
70245;Laerm;57637;49.272;8.590;2023-07-28T04:49:15;50.44;39.96;62.90;;
70245;Laerm;57637;49.272;8.590;2023-07-28T04:51:41;51.14;43.27;62.51;;
70245;Laerm;57637;49.272;8.590;2023-07-28T04:54:09;45.86;41.63;50.44;;
70245;Laerm;57637;49.272;8.590;2023-07-28T04:56:34;49.09;43.80;57.85;;
70245;Laerm;57637;49.272;8.590;2023-07-28T04:58:59;50.07;47.42;56.10;;
70245;Laerm;57637;49.272;8.590;2023-07-28T05:01:25;50.75;48.04;56.25;;
70245;Laerm;57637;49.272;8.590;2023-07-28T05:03:51;50.13;47.00;60.79;;
70245;Laerm;57637;49.272;8.590;2023-07-28T05:06:16;49.06;46.38;54.56;;
70245;Laerm;57637;49.272;8.590;2023-07-28T05:08:42;46.57;42.98;51.65;;
70245;Laerm;57637;49.272;8.590;2023-07-28T05:11:08;47.49;42.75;53.64;;
70245;Laerm;57637;49.272;8.590;2023-07-28T05:13:33;48.70;45.03;57.17;;
70245;Laerm;57637;49.272;8.590;2023-07-28T05:15:59;50.99;44.73;55.39;;
70245;Laerm;57637;49.272;8.590;2023-07-28T05:18:25;52.35;45.21;57.22;;
70245;Laerm;57637;49.272;8.590;2023-07-28T05:20:50;47.27;44.42;55.77;;
70245;Laerm;57637;49.272;8.590;2023-07-28T05:23:16;47.37;44.36;55.55;;
70245;Laerm;57637;49.272;8.590;2023-07-28T05:25:41;45.43;41.77;57.78;;
70245;Laerm;57637;49.272;8.590;2023-07-28T05:28:06;44.62;40.48;61.06;;
70245;Laerm;57637;49.272;8.590;2023-07-28T05:30:32;48.09;40.98;68.04;;
70245;Laerm;57637;49.272;8.590;2023-07-28T05:32:57;45.29;37.76;67.36;;
70245;Laerm;57637;49.272;8.590;2023-07-28T05:35:22;42.46;37.74;65.24;;
70245;Laerm;57637;49.272;8.590;2023-07-28T05:37:48;44.20;38.34;58.85;;
70245;Laerm;57637;49.272;8.590;2023-07-28T05:40:13;46.39;36.85;75.04;;
70245;Laerm;57637;49.272;8.590;2023-07-28T05:42:39;44.97;36.41;60.25;;
70245;Laerm;57637;49.272;8.590;2023-07-28T05:45:04;47.11;34.88;64.93;;
70245;Laerm;57637;49.272;8.590;2023-07-28T05:47:30;40.84;35.72;53.99;;
70245;Laerm;57637;49.272;8.590;2023-07-28T05:49:55;40.72;34.45;55.36;;
70245;Laerm;57637;49.272;8.590;2023-07-28T05:52:21;38.95;34.58;55.39;;
70245;Laerm;57637;49.272;8.590;2023-07-28T05:54:47;41.55;34.76;58.11;;
70245;Laerm;57637;49.272;8.590;2023-07-28T05:57:13;40.00;35.12;56.06;;
70245;Laerm;57637;49.272;8.590;2023-07-28T05:59:39;42.41;34.94;53.71;;
70245;Laerm;57637;49.272;8.590;2023-07-28T06:02:04;40.68;35.01;57.35;;
70245;Laerm;57637;49.272;8.590;2023-07-28T06:04:29;38.19;34.87;46.32;;
70245;Laerm;57637;49.272;8.590;2023-07-28T06:06:55;43.09;33.96;63.30;;
70245;Laerm;57637;49.272;8.590;2023-07-28T06:09:20;38.80;35.04;53.69;;
70245;Laerm;57637;49.272;8.590;2023-07-28T06:11:45;40.14;34.70;55.71;;
70245;Laerm;57637;49.272;8.590;2023-07-28T06:14:11;44.22;34.71;64.43;;
70245;Laerm;57637;49.272;8.590;2023-07-28T06:16:36;38.77;34.33;53.67;;
70245;Laerm;57637;49.272;8.590;2023-07-28T06:19:01;41.52;34.12;56.80;;
70245;Laerm;57637;49.272;8.590;2023-07-28T06:21:27;48.39;35.78;60.73;;
70245;Laerm;57637;49.272;8.590;2023-07-28T06:23:52;50.96;47.07;64.52;;
70245;Laerm;57637;49.272;8.590;2023-07-28T06:26:18;52.59;47.30;68.58;;
70245;Laerm;57637;49.272;8.590;2023-07-28T06:28:43;52.06;47.32;62.72;;
70245;Laerm;57637;49.272;8.590;2023-07-28T06:31:08;52.18;47.23;63.10;;
70245;Laerm;57637;49.272;8.590;2023-07-28T06:33:34;51.96;47.65;63.89;;
70245;Laerm;57637;49.272;8.590;2023-07-28T06:36:00;53.23;47.53;75.43;;
70245;Laerm;57637;49.272;8.590;2023-07-28T06:38:25;52.75;47.29;68.81;;
70245;Laerm;57637;49.272;8.590;2023-07-28T06:40:51;52.76;47.17;68.76;;
70245;Laerm;57637;49.272;8.590;2023-07-28T06:43:16;53.39;47.87;71.50;;
70245;Laerm;57637;49.272;8.590;2023-07-28T06:45:43;50.95;41.03;64.15;;
70245;Laerm;57637;49.272;8.590;2023-07-28T06:48:08;43.31;34.38;65.61;;
70245;Laerm;57637;49.272;8.590;2023-07-28T06:50:36;40.69;33.63;51.91;;
70245;Laerm;57637;49.272;8.590;2023-07-28T06:53:02;44.03;33.25;67.36;;
70245;Laerm;57637;49.272;8.590;2023-07-28T06:55:27;38.84;33.22;54.21;;
70245;Laerm;57637;49.272;8.590;2023-07-28T06:57:53;38.94;33.34;61.38;;
70245;Laerm;57637;49.272;8.590;2023-07-28T07:00:18;38.96;31.84;52.91;;
70245;Laerm;57637;49.272;8.590;2023-07-28T07:02:44;41.31;33.02;57.36;;
70245;Laerm;57637;49.272;8.590;2023-07-28T07:05:10;40.12;32.95;59.34;;
70245;Laerm;57637;49.272;8.590;2023-07-28T07:07:35;43.69;32.52;66.29;;
70245;Laerm;57637;49.272;8.590;2023-07-28T07:10:01;39.39;32.94;58.31;;
70245;Laerm;57637;49.272;8.590;2023-07-28T07:12:26;43.20;35.32;68.13;;
70245;Laerm;57637;49.272;8.590;2023-07-28T07:14:52;37.93;32.80;59.19;;
70245;Laerm;57637;49.272;8.590;2023-07-28T07:17:17;38.29;32.08;55.25;;
70245;Laerm;57637;49.272;8.590;2023-07-28T07:19:43;36.81;32.09;54.95;;
70245;Laerm;57637;49.272;8.590;2023-07-28T07:22:09;35.81;31.39;48.59;;
70245;Laerm;57637;49.272;8.590;2023-07-28T07:24:34;35.88;31.69;47.85;;
70245;Laerm;57637;49.272;8.590;2023-07-28T07:27:00;36.93;31.26;60.41;;
70245;Laerm;57637;49.272;8.590;2023-07-28T07:29:25;41.13;31.83;59.70;;
70245;Laerm;57637;49.272;8.590;2023-07-28T07:31:50;39.44;31.86;60.65;;
70245;Laerm;57637;49.272;8.590;2023-07-28T07:34:20;40.99;31.65;62.34;;
70245;Laerm;57637;49.272;8.590;2023-07-28T07:36:46;39.89;32.49;60.75;;
70245;Laerm;57637;49.272;8.590;2023-07-28T07:39:12;38.50;32.31;57.63;;
70245;Laerm;57637;49.272;8.590;2023-07-28T07:41:37;39.86;32.60;60.67;;
70245;Laerm;57637;49.272;8.590;2023-07-28T07:44:03;38.05;32.56;51.51;;
70245;Laerm;57637;49.272;8.590;2023-07-28T07:46:28;38.22;33.05;55.89;;
70245;Laerm;57637;49.272;8.590;2023-07-28T07:48:53;39.54;31.94;60.64;;
70245;Laerm;57637;49.272;8.590;2023-07-28T07:51:19;39.97;32.48;59.17;;
70245;Laerm;57637;49.272;8.590;2023-07-28T07:53:44;38.96;32.23;56.01;;
70245;Laerm;57637;49.272;8.590;2023-07-28T07:56:10;39.55;32.46;62.49;;
70245;Laerm;57637;49.272;8.590;2023-07-28T07:58:36;43.85;32.77;63.18;;
70245;Laerm;57637;49.272;8.590;2023-07-28T08:01:02;44.54;32.78;66.18;;
70245;Laerm;57637;49.272;8.590;2023-07-28T08:03:28;43.08;32.92;62.55;;
70245;Laerm;57637;49.272;8.590;2023-07-28T08:05:53;39.94;32.40;65.12;;
70245;Laerm;57637;49.272;8.590;2023-07-28T08:08:19;43.37;32.40;64.80;;
70245;Laerm;57637;49.272;8.590;2023-07-28T08:10:49;50.81;33.03;63.89;;
70245;Laerm;57637;49.272;8.590;2023-07-28T08:13:15;54.50;33.33;62.83;;
70245;Laerm;57637;49.272;8.590;2023-07-28T08:15:42;38.34;32.46;60.93;;
70245;Laerm;57637;49.272;8.590;2023-07-28T08:18:08;40.00;32.65;62.90;;
70245;Laerm;57637;49.272;8.590;2023-07-28T08:20:33;39.67;32.49;54.78;;
70245;Laerm;57637;49.272;8.590;2023-07-28T08:22:59;44.79;31.91;55.84;;
70245;Laerm;57637;49.272;8.590;2023-07-28T08:25:24;45.35;32.63;70.55;;
70245;Laerm;57637;49.272;8.590;2023-07-28T08:27:50;48.82;34.09;55.24;;
70245;Laerm;57637;49.272;8.590;2023-07-28T08:30:15;58.38;47.46;73.31;;
70245;Laerm;57637;49.272;8.590;2023-07-28T08:32:41;45.21;33.27;62.31;;
70245;Laerm;57637;49.272;8.590;2023-07-28T08:35:07;38.49;32.14;55.13;;
70245;Laerm;57637;49.272;8.590;2023-07-28T08:37:33;44.46;31.77;60.41;;
70245;Laerm;57637;49.272;8.590;2023-07-28T08:39:59;44.42;31.67;63.05;;
70245;Laerm;57637;49.272;8.590;2023-07-28T08:42:24;43.73;32.03;69.14;;
70245;Laerm;57637;49.272;8.590;2023-07-28T08:44:50;52.88;32.66;69.13;;
70245;Laerm;57637;49.272;8.590;2023-07-28T08:47:17;41.06;33.27;57.34;;
70245;Laerm;57637;49.272;8.590;2023-07-28T08:49:44;42.01;32.25;59.11;;
70245;Laerm;57637;49.272;8.590;2023-07-28T08:52:09;42.51;31.12;64.49;;
70245;Laerm;57637;49.272;8.590;2023-07-28T08:54:34;46.04;32.39;68.29;;
70245;Laerm;57637;49.272;8.590;2023-07-28T08:57:00;42.46;31.97;62.39;;
70245;Laerm;57637;49.272;8.590;2023-07-28T08:59:27;47.11;31.47;76.83;;
70245;Laerm;57637;49.272;8.590;2023-07-28T09:01:54;47.93;31.77;71.58;;
70245;Laerm;57637;49.272;8.590;2023-07-28T09:04:21;39.47;31.52;56.35;;
70245;Laerm;57637;49.272;8.590;2023-07-28T09:06:48;38.96;32.15;53.57;;
70245;Laerm;57637;49.272;8.590;2023-07-28T09:09:15;50.71;32.68;69.85;;
70245;Laerm;57637;49.272;8.590;2023-07-28T09:11:48;48.32;31.95;68.44;;
70245;Laerm;57637;49.272;8.590;2023-07-28T09:14:16;47.59;31.46;67.95;;
70245;Laerm;57637;49.272;8.590;2023-07-28T09:16:51;42.57;31.93;53.93;;
70245;Laerm;57637;49.272;8.590;2023-07-28T09:19:19;45.49;32.42;70.42;;
70245;Laerm;57637;49.272;8.590;2023-07-28T09:21:45;43.55;31.48;72.40;;
70245;Laerm;57637;49.272;8.590;2023-07-28T09:24:21;42.71;31.62;67.57;;
70245;Laerm;57637;49.272;8.590;2023-07-28T09:26:47;40.35;32.02;64.64;;
70245;Laerm;57637;49.272;8.590;2023-07-28T09:29:15;42.48;31.75;62.52;;
70245;Laerm;57637;49.272;8.590;2023-07-28T09:31:45;43.34;32.80;58.06;;
70245;Laerm;57637;49.272;8.590;2023-07-28T09:34:12;44.13;32.83;58.59;;
70245;Laerm;57637;49.272;8.590;2023-07-28T09:36:39;43.48;33.01;54.17;;
70245;Laerm;57637;49.272;8.590;2023-07-28T09:39:05;44.06;31.93;63.33;;
70245;Laerm;57637;49.272;8.590;2023-07-28T09:41:35;60.73;32.25;71.41;;
70245;Laerm;57637;49.272;8.590;2023-07-28T09:44:01;40.81;31.70;52.29;;
70245;Laerm;57637;49.272;8.590;2023-07-28T09:46:28;42.81;32.02;73.09;;
70245;Laerm;57637;49.272;8.590;2023-07-28T09:48:56;40.23;31.65;57.41;;
70245;Laerm;57637;49.272;8.590;2023-07-28T09:51:30;35.34;30.44;54.71;;
70245;Laerm;57637;49.272;8.590;2023-07-28T09:54:05;37.31;30.27;62.73;;
70245;Laerm;57637;49.272;8.590;2023-07-28T09:56:31;46.67;31.15;63.51;;
70245;Laerm;57637;49.272;8.590;2023-07-28T09:58:58;49.26;32.86;65.08;;
70245;Laerm;57637;49.272;8.590;2023-07-28T10:01:24;37.43;31.02;53.31;;
70245;Laerm;57637;49.272;8.590;2023-07-28T10:03:50;44.52;31.83;69.72;;
70245;Laerm;57637;49.272;8.590;2023-07-28T10:06:17;55.36;31.31;68.87;;
70245;Laerm;57637;49.272;8.590;2023-07-28T10:08:44;51.21;31.41;72.72;;
70245;Laerm;57637;49.272;8.590;2023-07-28T10:11:14;39.84;32.76;57.91;;
70245;Laerm;57637;49.272;8.590;2023-07-28T10:13:41;39.96;32.93;54.39;;
70245;Laerm;57637;49.272;8.590;2023-07-28T10:16:11;45.47;31.92;62.94;;
70245;Laerm;57637;49.272;8.590;2023-07-28T10:18:37;43.08;30.93;66.77;;
70245;Laerm;57637;49.272;8.590;2023-07-28T10:21:08;49.80;31.13;76.44;;
70245;Laerm;57637;49.272;8.590;2023-07-28T10:23:38;43.17;30.31;68.74;;
70245;Laerm;57637;49.272;8.590;2023-07-28T10:26:04;38.55;32.34;56.87;;
70245;Laerm;57637;49.272;8.590;2023-07-28T10:28:37;37.12;32.43;48.84;;
70245;Laerm;57637;49.272;8.590;2023-07-28T10:31:05;36.77;30.88;51.53;;
70245;Laerm;57637;49.272;8.590;2023-07-28T10:36:13;40.27;32.54;54.89;;
70245;Laerm;57637;49.272;8.590;2023-07-28T10:38:39;38.31;32.81;53.49;;
70245;Laerm;57637;49.272;8.590;2023-07-28T10:41:06;38.74;33.98;51.77;;
70245;Laerm;57637;49.272;8.590;2023-07-28T10:43:32;39.38;33.10;54.01;;
70245;Laerm;57637;49.272;8.590;2023-07-28T10:45:59;39.77;33.12;56.36;;
70245;Laerm;57637;49.272;8.590;2023-07-28T10:48:25;41.17;32.80;58.74;;
70245;Laerm;57637;49.272;8.590;2023-07-28T10:50:51;43.10;33.07;59.29;;
70245;Laerm;57637;49.272;8.590;2023-07-28T10:53:16;39.81;32.24;55.51;;
70245;Laerm;57637;49.272;8.590;2023-07-28T10:55:42;41.61;33.39;57.87;;
70245;Laerm;57637;49.272;8.590;2023-07-28T10:58:08;45.25;33.04;56.82;;
70245;Laerm;57637;49.272;8.590;2023-07-28T11:00:33;42.85;31.72;59.04;;
70245;Laerm;57637;49.272;8.590;2023-07-28T11:02:59;42.53;32.00;57.07;;
70245;Laerm;57637;49.272;8.590;2023-07-28T11:05:29;39.92;31.51;54.62;;
70245;Laerm;57637;49.272;8.590;2023-07-28T11:07:56;40.97;32.38;62.55;;
70245;Laerm;57637;49.272;8.590;2023-07-28T11:10:23;44.08;32.65;67.33;;
70245;Laerm;57637;49.272;8.590;2023-07-28T11:12:50;42.01;33.20;59.98;;
70245;Laerm;57637;49.272;8.590;2023-07-28T11:15:17;40.80;34.21;50.85;;
70245;Laerm;57637;49.272;8.590;2023-07-28T11:17:48;39.69;32.81;61.66;;
70245;Laerm;57637;49.272;8.590;2023-07-28T11:20:21;37.40;32.40;55.49;;
70245;Laerm;57637;49.272;8.590;2023-07-28T11:22:53;43.20;32.57;65.45;;
70245;Laerm;57637;49.272;8.590;2023-07-28T11:25:18;48.21;35.12;73.88;;
70245;Laerm;57637;49.272;8.590;2023-07-28T11:27:44;47.17;33.92;76.32;;
70245;Laerm;57637;49.272;8.590;2023-07-28T11:30:12;42.20;32.95;59.79;;
70245;Laerm;57637;49.272;8.590;2023-07-28T11:32:38;42.12;32.27;56.98;;
70245;Laerm;57637;49.272;8.590;2023-07-28T11:35:08;38.31;32.84;51.15;;
70245;Laerm;57637;49.272;8.590;2023-07-28T11:37:36;37.79;33.00;50.55;;
70245;Laerm;57637;49.272;8.590;2023-07-28T11:40:03;40.02;33.16;54.03;;
70245;Laerm;57637;49.272;8.590;2023-07-28T11:42:36;39.91;32.88;49.76;;
70245;Laerm;57637;49.272;8.590;2023-07-28T11:45:03;39.02;34.20;48.59;;
70245;Laerm;57637;49.272;8.590;2023-07-28T11:47:29;40.47;33.19;51.84;;
70245;Laerm;57637;49.272;8.590;2023-07-28T11:49:56;42.77;34.51;56.23;;
70245;Laerm;57637;49.272;8.590;2023-07-28T11:52:24;38.77;32.19;57.79;;
70245;Laerm;57637;49.272;8.590;2023-07-28T11:54:51;38.02;32.19;50.31;;
70245;Laerm;57637;49.272;8.590;2023-07-28T11:57:17;38.73;32.56;56.85;;
70245;Laerm;57637;49.272;8.590;2023-07-28T11:59:43;35.47;31.83;46.33;;
70245;Laerm;57637;49.272;8.590;2023-07-28T12:02:12;40.56;32.62;56.55;;
70245;Laerm;57637;49.272;8.590;2023-07-28T12:04:39;49.74;32.21;68.49;;
70245;Laerm;57637;49.272;8.590;2023-07-28T12:07:13;37.01;32.89;53.64;;
70245;Laerm;57637;49.272;8.590;2023-07-28T12:12:21;41.40;34.53;62.94;;
70245;Laerm;57637;49.272;8.590;2023-07-28T12:14:47;40.33;33.73;57.08;;
70245;Laerm;57637;49.272;8.590;2023-07-28T12:17:23;39.00;33.13;53.04;;
70245;Laerm;57637;49.272;8.590;2023-07-28T12:20:05;41.73;34.03;55.17;;
70245;Laerm;57637;49.272;8.590;2023-07-28T12:22:41;42.51;34.24;61.25;;
70245;Laerm;57637;49.272;8.590;2023-07-28T12:25:08;40.89;35.81;59.60;;
70245;Laerm;57637;49.272;8.590;2023-07-28T12:27:33;40.53;33.90;58.51;;
70245;Laerm;57637;49.272;8.590;2023-07-28T12:29:59;40.61;35.48;58.57;;
70245;Laerm;57637;49.272;8.590;2023-07-28T12:32:25;48.02;39.66;55.56;;
70245;Laerm;57637;49.272;8.590;2023-07-28T12:34:51;51.69;48.05;61.80;;
70245;Laerm;57637;49.272;8.590;2023-07-28T12:37:17;51.41;45.87;58.82;;
70245;Laerm;57637;49.272;8.590;2023-07-28T12:39:43;49.32;44.54;52.67;;
70245;Laerm;57637;49.272;8.590;2023-07-28T12:42:10;48.23;45.28;56.80;;
70245;Laerm;57637;49.272;8.590;2023-07-28T12:44:36;48.39;43.95;54.35;;
70245;Laerm;57637;49.272;8.590;2023-07-28T12:47:02;47.68;43.99;59.30;;
70245;Laerm;57637;49.272;8.590;2023-07-28T12:49:28;48.45;43.40;59.49;;
70245;Laerm;57637;49.272;8.590;2023-07-28T12:51:55;46.17;42.24;57.02;;
70245;Laerm;57637;49.272;8.590;2023-07-28T12:54:22;47.82;44.70;55.99;;
70245;Laerm;57637;49.272;8.590;2023-07-28T12:56:47;45.81;42.21;55.39;;
70245;Laerm;57637;49.272;8.590;2023-07-28T12:59:13;46.43;41.53;58.44;;
70245;Laerm;57637;49.272;8.590;2023-07-28T13:01:39;45.81;40.85;53.83;;
70245;Laerm;57637;49.272;8.590;2023-07-28T13:04:04;44.37;39.24;54.75;;
70245;Laerm;57637;49.272;8.590;2023-07-28T13:06:29;43.73;40.06;62.51;;
70245;Laerm;57637;49.272;8.590;2023-07-28T13:08:55;46.42;40.44;64.84;;
70245;Laerm;57637;49.272;8.590;2023-07-28T13:11:20;64.95;46.46;72.34;;
70245;Laerm;57637;49.272;8.590;2023-07-28T13:13:46;54.76;39.85;63.87;;
70245;Laerm;57637;49.272;8.590;2023-07-28T13:16:11;56.84;54.33;60.54;;
70245;Laerm;57637;49.272;8.590;2023-07-28T13:18:36;52.34;45.29;61.66;;
70245;Laerm;57637;49.272;8.590;2023-07-28T13:21:02;51.15;45.72;61.08;;
70245;Laerm;57637;49.272;8.590;2023-07-28T13:23:27;49.15;42.84;62.82;;
70245;Laerm;57637;49.272;8.590;2023-07-28T13:25:53;45.17;41.72;52.43;;
70245;Laerm;57637;49.272;8.590;2023-07-28T13:28:18;44.11;41.66;50.15;;
70245;Laerm;57637;49.272;8.590;2023-07-28T13:30:44;45.13;42.44;57.47;;
70245;Laerm;57637;49.272;8.590;2023-07-28T13:33:09;44.41;41.55;53.97;;
70245;Laerm;57637;49.272;8.590;2023-07-28T13:35:35;60.28;41.24;69.83;;
70245;Laerm;57637;49.272;8.590;2023-07-28T13:38:00;46.47;41.14;57.90;;
70245;Laerm;57637;49.272;8.590;2023-07-28T13:40:25;46.47;41.90;62.05;;
70245;Laerm;57637;49.272;8.590;2023-07-28T13:42:51;44.01;39.63;62.66;;
70245;Laerm;57637;49.272;8.590;2023-07-28T13:45:16;47.09;41.28;53.82;;
70245;Laerm;57637;49.272;8.590;2023-07-28T13:47:42;52.81;45.85;67.67;;